Destrehan, Louisiana
Current Conditions -  °F | °C
As of 6:53 AM on Wednesday 22 Oct 2014 (Local Time) from KMSY Reporting Station
Few Clouds Few Clouds  
Wind Chill: 67°   Ceiling: Unl
Heat Index: 67°   Visibility: 10mi
Dew Point: 60°   Wind: 12mph
Humidity: 79%   Direction: 40°NE
Pressure: 30.04"   Gusts: NA
Location:  29.95°N, 90.39°W
Report Text: KMSY 221153Z 04010KT 10SM FEW250 19/16 A3004 RMK AO2 SLP176 T01940156 10206 20161 52007
Loading
Personal Weather Stations






























Interactive Weather Map
Tropical Storm Tracking
New forecast layout! Learn more

10-Day Weather Forecast

Advertisements
Track Severe Weather on mobile